createdAt,value
2019-03-09T00:00:30.860Z,12.33
2019-03-09T00:02:58.304Z,9.57
2019-03-09T00:05:25.726Z,10.87
2019-03-09T00:07:53.180Z,7.07
2019-03-09T00:10:20.582Z,11.57
2019-03-09T00:12:48.007Z,8.50
2019-03-09T00:15:15.435Z,12.00
2019-03-09T00:17:42.847Z,11.57
2019-03-09T00:20:10.267Z,9.27
2019-03-09T00:22:37.719Z,11.77
2019-03-09T00:25:05.128Z,6.80
2019-03-09T00:27:44.424Z,8.70
2019-03-09T00:30:11.835Z,10.43
2019-03-09T00:32:39.298Z,12.57
2019-03-09T00:35:06.744Z,11.00
2019-03-09T00:37:34.209Z,11.20
2019-03-09T00:40:01.581Z,9.13
2019-03-09T00:42:28.999Z,10.90
2019-03-09T00:44:56.453Z,7.57
2019-03-09T00:47:23.846Z,7.93
2019-03-09T00:49:51.231Z,7.67
2019-03-09T00:52:18.707Z,6.10
2019-03-09T00:54:46.122Z,9.17
2019-03-09T00:57:13.559Z,9.23
2019-03-09T00:59:40.958Z,6.37
2019-03-09T01:02:08.408Z,5.37
2019-03-09T01:04:35.850Z,7.67
2019-03-09T01:07:03.376Z,10.30
2019-03-09T01:09:30.802Z,13.03
2019-03-09T01:11:58.208Z,12.47
2019-03-09T01:14:25.651Z,8.27
2019-03-09T01:16:53.059Z,7.73
2019-03-09T01:19:20.497Z,5.63
2019-03-09T01:21:47.901Z,8.43
2019-03-09T01:24:15.303Z,7.33
2019-03-09T01:26:42.735Z,6.50
2019-03-09T01:29:10.137Z,7.07
2019-03-09T01:31:37.582Z,6.30
2019-03-09T01:34:04.963Z,6.93
2019-03-09T01:36:32.406Z,6.07
2019-03-09T01:38:59.818Z,3.90
2019-03-09T01:41:27.245Z,5.43
2019-03-09T01:43:54.698Z,4.80
2019-03-09T01:46:22.106Z,3.80
2019-03-09T01:48:49.531Z,5.10
2019-03-09T01:51:16.949Z,4.30
2019-03-09T01:53:44.355Z,4.37
2019-03-09T01:56:11.768Z,6.03
2019-03-09T01:58:39.209Z,3.60
2019-03-09T02:01:06.652Z,3.50
2019-03-09T02:03:34.016Z,3.33
2019-03-09T02:06:01.445Z,3.70
2019-03-09T02:08:28.847Z,3.90
2019-03-09T02:10:56.256Z,4.67
2019-03-09T02:13:23.658Z,3.23
2019-03-09T02:15:51.083Z,4.50
2019-03-09T02:18:18.496Z,5.13
2019-03-09T02:20:45.922Z,3.73
2019-03-09T02:23:13.322Z,3.77
2019-03-09T02:25:40.738Z,3.30
2019-03-09T02:28:08.160Z,4.03
2019-03-09T02:30:35.574Z,5.03
2019-03-09T02:33:02.989Z,4.80
2019-03-09T02:35:30.389Z,6.50
2019-03-09T02:37:57.813Z,8.00
2019-03-09T02:40:25.216Z,4.47
2019-03-09T02:42:52.645Z,4.97
2019-03-09T02:45:20.061Z,6.03
2019-03-09T02:47:47.465Z,4.53
2019-03-09T02:50:14.902Z,5.93
2019-03-09T02:52:42.311Z,8.43
2019-03-09T02:55:09.761Z,5.90
2019-03-09T02:57:37.152Z,8.37
2019-03-09T03:00:04.573Z,6.80
2019-03-09T03:02:31.975Z,8.60
2019-03-09T03:04:59.396Z,6.70
2019-03-09T03:07:26.794Z,8.00
2019-03-09T03:09:54.208Z,6.77
2019-03-09T03:12:21.625Z,7.03
2019-03-09T03:14:49.042Z,5.40
2019-03-09T03:17:16.439Z,4.93
2019-03-09T03:19:44.016Z,4.30
2019-03-09T03:22:11.437Z,4.30
2019-03-09T03:24:38.834Z,4.40
2019-03-09T03:27:06.266Z,4.13
2019-03-09T03:29:33.677Z,4.73
2019-03-09T03:32:01.153Z,4.20
2019-03-09T03:34:28.580Z,3.63
2019-03-09T03:36:55.940Z,4.00
2019-03-09T03:39:23.345Z,4.07
2019-03-09T03:41:50.757Z,5.13
2019-03-09T03:44:18.182Z,5.73
2019-03-09T03:46:45.576Z,4.13
2019-03-09T03:49:12.967Z,5.00
2019-03-09T03:51:40.405Z,4.27
2019-03-09T03:54:07.805Z,4.70
2019-03-09T03:56:35.217Z,7.40
2019-03-09T03:59:02.643Z,6.37
2019-03-09T04:01:30.029Z,4.30
2019-03-09T04:03:57.454Z,5.20
2019-03-09T04:06:24.854Z,6.00
2019-03-09T04:08:52.267Z,6.00
2019-03-09T04:11:19.672Z,6.20
2019-03-09T04:13:47.118Z,5.17
2019-03-09T04:16:14.510Z,5.33
2019-03-09T04:18:41.942Z,6.13
2019-03-09T04:21:09.376Z,5.17
2019-03-09T04:23:36.798Z,5.97
2019-03-09T04:26:04.197Z,4.77
2019-03-09T04:28:31.624Z,4.40
2019-03-09T04:30:59.056Z,7.37
2019-03-09T04:33:26.451Z,5.53
2019-03-09T04:35:53.878Z,5.33
2019-03-09T04:38:21.291Z,6.80
2019-03-09T04:40:48.730Z,6.53
2019-03-09T04:43:16.128Z,4.63
2019-03-09T04:45:43.525Z,5.63
2019-03-09T04:48:10.942Z,7.60
2019-03-09T04:50:38.370Z,6.43
2019-03-09T04:53:05.768Z,7.10
2019-03-09T04:55:33.191Z,6.10
2019-03-09T04:58:00.584Z,6.97
2019-03-09T05:00:28.021Z,9.53
2019-03-09T05:02:55.411Z,6.00
2019-03-09T05:05:22.832Z,7.90
2019-03-09T05:07:50.231Z,9.60
2019-03-09T05:10:17.665Z,7.80
2019-03-09T05:12:45.083Z,8.43
2019-03-09T05:15:12.478Z,7.63
2019-03-09T05:17:39.916Z,6.17
2019-03-09T05:20:07.323Z,11.53
2019-03-09T05:22:34.785Z,9.40
2019-03-09T05:25:02.175Z,6.73
2019-03-09T05:27:29.607Z,9.00
2019-03-09T05:29:57.031Z,10.27
2019-03-09T05:32:24.478Z,10.00
2019-03-09T05:34:51.877Z,8.40
2019-03-09T05:37:19.299Z,11.63
2019-03-09T05:39:46.710Z,8.40
2019-03-09T05:42:14.144Z,12.47
2019-03-09T05:44:41.547Z,12.57
2019-03-09T05:47:08.987Z,15.77
2019-03-09T05:49:36.406Z,11.17
2019-03-09T05:52:19.119Z,9.73
2019-03-09T05:54:46.529Z,15.33
2019-03-09T05:57:13.933Z,11.17
2019-03-09T05:59:41.375Z,13.40
2019-03-09T06:02:08.781Z,9.57
2019-03-09T06:04:36.211Z,12.10
2019-03-09T06:07:03.632Z,13.07
2019-03-09T06:09:31.032Z,9.47
2019-03-09T06:11:58.478Z,12.13
2019-03-09T06:14:25.910Z,13.23
2019-03-09T06:16:53.346Z,11.70
2019-03-09T06:19:20.766Z,9.87
2019-03-09T06:21:48.216Z,14.37
2019-03-09T06:24:15.630Z,8.67
2019-03-09T06:26:43.062Z,13.83
2019-03-09T06:29:10.470Z,10.43
2019-03-09T06:31:37.898Z,11.70
2019-03-09T06:34:05.297Z,11.40
2019-03-09T06:36:38.757Z,10.30
2019-03-09T06:39:06.172Z,13.80
2019-03-09T06:41:39.024Z,12.43
2019-03-09T06:44:06.464Z,14.10
2019-03-09T06:46:33.870Z,12.27
2019-03-09T06:49:01.280Z,11.30
2019-03-09T06:51:28.724Z,13.77
2019-03-09T06:53:56.121Z,14.10
2019-03-09T06:56:23.525Z,10.13
2019-03-09T06:58:50.954Z,10.07
2019-03-09T07:01:18.376Z,10.77
2019-03-09T07:03:45.808Z,9.43
2019-03-09T07:06:13.197Z,13.20
2019-03-09T07:08:40.624Z,12.60
2019-03-09T07:11:08.037Z,16.93
2019-03-09T07:13:35.468Z,13.40
2019-03-09T07:16:02.903Z,15.03
2019-03-09T07:18:30.297Z,15.73
2019-03-09T07:20:57.732Z,15.40
2019-03-09T07:23:25.165Z,8.90
2019-03-09T07:25:52.568Z,10.17
2019-03-09T07:28:19.994Z,14.40
2019-03-09T07:30:47.434Z,14.73
2019-03-09T07:33:14.839Z,13.63
2019-03-09T07:35:42.245Z,14.63
2019-03-09T07:38:09.680Z,9.27
2019-03-09T07:40:37.103Z,12.13
2019-03-09T07:43:04.533Z,16.33
2019-03-09T07:45:31.923Z,13.90
2019-03-09T07:47:59.385Z,12.03
2019-03-09T07:50:26.822Z,11.93
2019-03-09T07:52:54.227Z,15.47
2019-03-09T07:55:21.644Z,12.57
2019-03-09T07:57:49.047Z,10.27
2019-03-09T08:00:22.240Z,15.50
2019-03-09T08:02:49.674Z,13.13
2019-03-09T08:05:17.099Z,11.57
2019-03-09T08:07:44.537Z,12.33
2019-03-09T08:10:11.951Z,13.60
2019-03-09T08:12:39.374Z,9.37
2019-03-09T08:15:06.787Z,13.87
2019-03-09T08:17:34.211Z,12.97
2019-03-09T08:20:01.648Z,15.57
2019-03-09T08:22:29.123Z,11.77
2019-03-09T08:24:56.531Z,11.30
2019-03-09T08:27:23.928Z,12.00
2019-03-09T08:29:51.359Z,18.50
2019-03-09T08:32:18.777Z,14.37
2019-03-09T08:34:46.204Z,16.03
2019-03-09T08:37:13.637Z,13.07
2019-03-09T08:39:41.050Z,18.27
2019-03-09T08:42:08.493Z,13.27
2019-03-09T08:44:35.922Z,14.10
2019-03-09T08:47:03.286Z,14.57
2019-03-09T08:49:30.749Z,15.53
2019-03-09T08:51:58.150Z,14.67
2019-03-09T08:54:25.566Z,15.03
2019-03-09T08:56:52.999Z,14.17
2019-03-09T08:59:20.406Z,11.90
2019-03-09T09:01:47.846Z,21.70
2019-03-09T09:04:15.247Z,17.93
2019-03-09T09:06:42.658Z,18.53
2019-03-09T09:09:10.076Z,19.77
2019-03-09T09:11:37.506Z,21.00
2019-03-09T09:14:04.901Z,18.13
2019-03-09T09:16:32.302Z,16.57
2019-03-09T09:18:59.716Z,17.83
2019-03-09T09:21:27.114Z,19.40
2019-03-09T09:23:54.563Z,19.57
2019-03-09T09:26:21.968Z,16.37
2019-03-09T09:28:49.367Z,17.77
2019-03-09T09:31:16.804Z,17.57
2019-03-09T09:33:44.203Z,17.50
2019-03-09T09:36:11.631Z,18.63
2019-03-09T09:38:39.046Z,24.60
2019-03-09T09:41:06.469Z,16.93
2019-03-09T09:43:33.866Z,14.90
2019-03-09T09:46:01.280Z,16.70
2019-03-09T09:48:28.702Z,19.50
2019-03-09T09:50:56.106Z,15.90
2019-03-09T09:53:23.678Z,19.87
2019-03-09T09:55:50.964Z,16.80
2019-03-09T09:58:18.394Z,17.30
2019-03-09T10:00:45.805Z,17.23
2019-03-09T10:03:13.239Z,20.40
2019-03-09T10:05:40.653Z,20.90
2019-03-09T10:08:08.078Z,20.07
2019-03-09T10:10:35.505Z,17.67
2019-03-09T10:13:02.907Z,19.17
2019-03-09T10:15:30.334Z,20.93
2019-03-09T10:17:57.757Z,18.77
2019-03-09T10:20:25.178Z,16.60
2019-03-09T10:23:03.072Z,14.43
2019-03-09T10:25:19.997Z,14.83
2019-03-09T10:27:47.411Z,15.03
2019-03-09T10:30:17.479Z,16.50
2019-03-09T10:32:44.912Z,22.90
2019-03-09T10:35:12.410Z,13.63
2019-03-09T10:37:39.799Z,18.33
2019-03-09T10:40:07.195Z,13.43
2019-03-09T10:42:34.668Z,17.07
2019-03-09T10:45:02.103Z,15.77
2019-03-09T10:47:29.514Z,11.70
2019-03-09T10:49:56.941Z,16.77
2019-03-09T10:52:24.354Z,13.73
2019-03-09T10:54:51.789Z,13.57
2019-03-09T10:57:19.189Z,15.40
2019-03-09T10:59:46.628Z,13.27
2019-03-09T11:02:14.033Z,10.63
2019-03-09T11:04:41.462Z,17.23
2019-03-09T11:07:09.431Z,19.77
2019-03-09T11:09:36.732Z,16.67
2019-03-09T11:12:04.167Z,21.47
2019-03-09T11:14:31.633Z,16.97
2019-03-09T11:16:59.056Z,19.83
2019-03-09T11:19:26.473Z,18.07
2019-03-09T11:21:53.931Z,21.10
2019-03-09T11:24:21.347Z,20.70
2019-03-09T11:26:48.775Z,24.93
2019-03-09T11:29:16.198Z,24.70
2019-03-09T11:31:43.646Z,19.17
2019-03-09T11:34:11.060Z,20.63
2019-03-09T11:36:38.478Z,24.73
2019-03-09T11:39:05.916Z,21.40
2019-03-09T11:41:33.320Z,27.60
2019-03-09T11:44:00.747Z,30.03
2019-03-09T11:46:28.171Z,26.83
2019-03-09T11:48:55.929Z,29.10
2019-03-09T11:51:23.377Z,27.73
2019-03-09T11:53:50.790Z,25.03
2019-03-09T11:56:18.226Z,22.00
2019-03-09T11:58:45.649Z,21.53
2019-03-09T12:01:13.069Z,27.93
2019-03-09T12:03:40.488Z,23.40
2019-03-09T12:06:07.891Z,22.37
2019-03-09T12:08:35.320Z,28.17
2019-03-09T12:11:02.733Z,27.40
2019-03-09T12:13:30.177Z,24.80
2019-03-09T12:15:59.237Z,28.03
2019-03-09T12:18:25.103Z,23.63
2019-03-09T12:20:52.517Z,26.80
2019-03-09T12:23:19.943Z,25.80
2019-03-09T12:25:47.378Z,22.70
2019-03-09T12:28:14.802Z,26.90
2019-03-09T12:30:42.276Z,31.03
2019-03-09T12:33:09.780Z,26.13
2019-03-09T12:35:37.215Z,26.37
2019-03-09T12:38:04.648Z,31.30
2019-03-09T12:40:32.046Z,25.73
2019-03-09T12:42:59.464Z,28.93
2019-03-09T12:45:26.912Z,34.73
2019-03-09T12:47:54.420Z,32.90
2019-03-09T12:50:21.865Z,31.97
2019-03-09T12:52:49.299Z,35.07
2019-03-09T12:55:16.758Z,29.40
2019-03-09T12:57:44.171Z,32.57
2019-03-09T13:00:11.604Z,36.20
2019-03-09T13:02:39.038Z,31.27
2019-03-09T13:05:06.552Z,35.20
2019-03-09T13:07:33.978Z,34.47
2019-03-09T13:10:01.404Z,36.17
2019-03-09T13:12:28.840Z,26.90
2019-03-09T13:14:56.264Z,44.83
2019-03-09T13:17:23.715Z,31.37
2019-03-09T13:19:51.152Z,34.30
2019-03-09T13:22:18.593Z,23.23
2019-03-09T13:24:46.081Z,32.63
2019-03-09T13:27:13.659Z,31.07
2019-03-09T13:29:41.063Z,28.97
2019-03-09T13:32:08.490Z,36.70
2019-03-09T13:34:35.968Z,26.07
2019-03-09T13:37:03.365Z,34.10
2019-03-09T13:39:52.294Z,37.47
2019-03-09T13:42:18.718Z,34.13
2019-03-09T13:44:46.176Z,24.87
2019-03-09T13:47:13.616Z,31.97
2019-03-09T13:49:41.060Z,29.03
2019-03-09T13:52:08.490Z,27.83
2019-03-09T13:54:35.913Z,36.50
2019-03-09T13:57:03.327Z,31.80
2019-03-09T13:59:30.755Z,22.83
2019-03-09T14:01:58.197Z,27.30
2019-03-09T14:04:25.642Z,21.83
2019-03-09T14:06:53.053Z,22.80
2019-03-09T14:09:20.761Z,25.47
2019-03-09T14:11:48.111Z,23.20
2019-03-09T14:14:15.603Z,23.20
2019-03-09T14:16:42.999Z,29.13
2019-03-09T14:19:10.412Z,23.10
2019-03-09T14:21:37.874Z,23.23
2019-03-09T14:24:06.854Z,25.57
2019-03-09T14:26:34.293Z,27.30
2019-03-09T14:29:01.701Z,19.07
2019-03-09T14:31:29.161Z,25.77
2019-03-09T14:33:56.651Z,33.07
2019-03-09T14:36:24.111Z,22.87
2019-03-09T14:38:51.579Z,22.00
2019-03-09T14:41:19.160Z,23.37
2019-03-09T14:43:46.600Z,22.43
2019-03-09T14:46:14.039Z,21.30
2019-03-09T14:48:41.599Z,19.20
2019-03-09T14:51:09.141Z,23.67
2019-03-09T14:53:36.651Z,20.43
2019-03-09T14:56:04.098Z,17.23
2019-03-09T14:58:31.605Z,19.57
2019-03-09T15:00:59.020Z,20.10
2019-03-09T15:03:26.423Z,26.73
2019-03-09T15:05:53.883Z,34.93
2019-03-09T15:08:21.279Z,21.67
2019-03-09T15:10:48.691Z,22.23
2019-03-09T15:13:16.179Z,23.60
2019-03-09T15:15:43.585Z,24.03
2019-03-09T15:18:11.069Z,25.17
2019-03-09T15:20:38.490Z,25.13
2019-03-09T15:23:05.917Z,28.60
2019-03-09T15:25:33.334Z,22.20
2019-03-09T15:28:00.742Z,25.67
2019-03-09T15:30:28.188Z,24.80
2019-03-09T15:32:55.610Z,25.63
2019-03-09T15:35:23.040Z,27.40
2019-03-09T15:37:51.485Z,35.43
2019-03-09T15:40:18.925Z,31.07
2019-03-09T15:42:46.380Z,28.63
2019-03-09T15:45:16.574Z,28.07
2019-03-09T15:47:44.000Z,31.77
2019-03-09T15:50:14.373Z,27.80
2019-03-09T15:52:41.862Z,32.93
2019-03-09T15:55:09.237Z,27.43
2019-03-09T15:57:36.660Z,29.10
2019-03-09T16:00:09.812Z,38.07
2019-03-09T16:02:37.327Z,32.47
2019-03-09T16:05:04.754Z,22.97
2019-03-09T16:07:32.195Z,21.10
2019-03-09T16:09:59.600Z,30.30
2019-03-09T16:12:27.013Z,29.10
2019-03-09T16:14:54.459Z,23.97
2019-03-09T16:17:21.885Z,31.92
2019-03-09T16:19:49.287Z,32.67
2019-03-09T16:22:16.731Z,35.87
2019-03-09T16:24:44.125Z,26.17
2019-03-09T16:27:11.526Z,36.13
2019-03-09T16:29:38.967Z,24.83
2019-03-09T16:32:06.377Z,26.90
2019-03-09T16:34:33.839Z,25.00
2019-03-09T16:37:01.275Z,29.47
2019-03-09T16:39:28.747Z,22.43
2019-03-09T16:41:56.163Z,34.43
2019-03-09T16:44:23.608Z,25.87
2019-03-09T16:46:51.022Z,27.93
2019-03-09T16:49:18.428Z,29.80
2019-03-09T16:51:45.860Z,33.50
2019-03-09T16:54:13.285Z,27.43
2019-03-09T16:56:40.717Z,32.07
2019-03-09T16:59:08.114Z,29.57
2019-03-09T17:01:35.546Z,26.00
2019-03-09T17:04:02.984Z,24.13
2019-03-09T17:06:30.424Z,28.87
2019-03-09T17:08:57.865Z,25.57
2019-03-09T17:11:25.280Z,26.33
2019-03-09T17:13:52.699Z,29.83
2019-03-09T17:16:20.118Z,29.83
2019-03-09T17:18:47.540Z,40.10
2019-03-09T17:21:14.966Z,26.10
2019-03-09T17:23:42.396Z,26.83
2019-03-09T17:26:09.868Z,30.93
2019-03-09T17:28:37.277Z,38.57
2019-03-09T17:31:04.722Z,24.17
2019-03-09T17:33:32.138Z,34.27
2019-03-09T17:35:59.539Z,35.57
2019-03-09T17:38:27.021Z,28.10
2019-03-09T17:40:54.533Z,30.53
2019-03-09T17:43:22.259Z,32.93
2019-03-09T17:45:49.767Z,40.73
2019-03-09T17:48:17.215Z,32.87
2019-03-09T17:50:44.640Z,31.03
2019-03-09T17:53:13.983Z,31.70
2019-03-09T17:55:39.582Z,31.53
2019-03-09T17:58:06.982Z,34.13
2019-03-09T18:00:42.147Z,35.10
2019-03-09T18:03:01.819Z,40.33
2019-03-09T18:05:29.241Z,33.60
2019-03-09T18:07:56.652Z,36.33
2019-03-09T18:10:29.987Z,27.60
2019-03-09T18:12:57.347Z,32.27
2019-03-09T18:15:24.791Z,32.13
2019-03-09T18:17:52.207Z,36.17
2019-03-09T18:20:19.645Z,29.03
2019-03-09T18:22:47.058Z,36.20
2019-03-09T18:25:14.460Z,30.47
2019-03-09T18:27:41.923Z,30.67
2019-03-09T18:30:09.317Z,35.90
2019-03-09T18:32:36.781Z,30.43
2019-03-09T18:35:04.219Z,28.33
2019-03-09T18:37:31.703Z,37.83
2019-03-09T18:39:59.115Z,27.97
2019-03-09T18:42:26.605Z,33.33
2019-03-09T18:44:54.005Z,34.13
2019-03-09T18:47:21.482Z,40.40
2019-03-09T18:49:48.924Z,39.40
2019-03-09T18:52:16.347Z,54.07
2019-03-09T18:54:43.788Z,36.27
2019-03-09T18:57:11.218Z,43.67
2019-03-09T18:59:38.624Z,39.40
2019-03-09T19:02:06.080Z,40.75
2019-03-09T19:04:33.523Z,38.37
2019-03-09T19:07:00.971Z,37.13
2019-03-09T19:09:28.444Z,42.67
2019-03-09T19:11:55.842Z,33.57
2019-03-09T19:14:23.275Z,35.43
2019-03-09T19:16:50.719Z,30.93
2019-03-09T19:19:18.206Z,40.17
2019-03-09T19:21:45.736Z,33.03
2019-03-09T19:24:13.210Z,33.67
2019-03-09T19:26:40.629Z,31.37
2019-03-09T19:29:08.022Z,28.47
2019-03-09T19:31:35.454Z,31.00
2019-03-09T19:34:03.195Z,32.47
2019-03-09T19:36:30.652Z,31.20
2019-03-09T19:38:58.168Z,40.37
2019-03-09T19:41:28.150Z,32.77
2019-03-09T19:43:55.652Z,31.83
2019-03-09T19:46:23.086Z,34.83
2019-03-09T19:48:50.552Z,29.77
2019-03-09T19:51:18.117Z,28.77
2019-03-09T19:53:45.663Z,32.60
2019-03-09T19:56:18.684Z,41.37
2019-03-09T19:58:46.316Z,43.30
2019-03-09T20:01:13.735Z,41.93
2019-03-09T20:03:41.222Z,28.10
2019-03-09T20:06:08.694Z,31.63
2019-03-09T20:08:36.141Z,35.93
2019-03-09T20:11:03.646Z,38.80
2019-03-09T20:13:31.089Z,40.97
2019-03-09T20:15:58.671Z,35.63
2019-03-09T20:18:26.257Z,38.27
2019-03-09T20:20:53.658Z,34.87
2019-03-09T20:23:21.124Z,36.97
2019-03-09T20:25:48.591Z,37.10
2019-03-09T20:28:15.980Z,31.03
2019-03-09T20:30:43.408Z,34.27
2019-03-09T20:33:11.024Z,41.30
2019-03-09T20:35:38.492Z,30.43
2019-03-09T20:38:05.948Z,44.67
2019-03-09T20:40:33.375Z,28.90
2019-03-09T20:43:00.805Z,35.67
2019-03-09T20:45:28.213Z,42.67
2019-03-09T20:47:55.650Z,43.60
2019-03-09T20:50:23.057Z,28.23
2019-03-09T20:52:50.495Z,44.07
2019-03-09T20:55:17.927Z,39.57
2019-03-09T20:57:45.373Z,40.13
2019-03-09T21:00:12.858Z,41.37
2019-03-09T21:02:40.289Z,38.27
2019-03-09T21:05:07.795Z,41.97
2019-03-09T21:07:35.298Z,35.53
2019-03-09T21:10:02.745Z,35.23
2019-03-09T21:12:30.246Z,32.57
2019-03-09T21:14:57.650Z,37.37
2019-03-09T21:17:25.126Z,34.47
2019-03-09T21:19:52.564Z,35.37
2019-03-09T21:22:20.047Z,36.10
2019-03-09T21:24:47.414Z,33.83
2019-03-09T21:27:14.836Z,29.20
2019-03-09T21:29:42.331Z,35.10
2019-03-09T21:32:09.759Z,27.80
2019-03-09T21:34:37.176Z,34.77
2019-03-09T21:37:04.609Z,32.93
2019-03-09T21:39:32.032Z,48.97
2019-03-09T21:41:59.476Z,39.27
2019-03-09T21:44:26.916Z,37.27
2019-03-09T21:46:54.384Z,27.23
2019-03-09T21:49:21.822Z,34.80
2019-03-09T21:51:49.284Z,31.77
2019-03-09T21:54:16.710Z,27.03
2019-03-09T21:56:44.157Z,34.80
2019-03-09T21:59:11.634Z,32.67
2019-03-09T22:01:39.070Z,32.80
2019-03-09T22:04:06.491Z,32.87
2019-03-09T22:06:33.911Z,33.73
2019-03-09T22:09:01.316Z,34.20
2019-03-09T22:11:28.833Z,36.30
2019-03-09T22:13:56.280Z,37.80
2019-03-09T22:16:23.713Z,26.57
2019-03-09T22:18:51.167Z,26.00
2019-03-09T22:21:18.555Z,32.17
2019-03-09T22:23:45.976Z,26.50
2019-03-09T22:26:13.409Z,24.27
2019-03-09T22:28:40.816Z,29.40
2019-03-09T22:31:08.248Z,31.03
2019-03-09T22:33:35.665Z,26.83
2019-03-09T22:36:03.135Z,30.97
2019-03-09T22:38:30.509Z,28.97
2019-03-09T22:40:57.944Z,25.00
2019-03-09T22:43:25.352Z,28.60
2019-03-09T22:45:52.784Z,24.17
2019-03-09T22:48:20.193Z,33.17
2019-03-09T22:50:47.664Z,27.77
2019-03-09T22:53:15.038Z,29.10
2019-03-09T22:55:42.474Z,30.50
2019-03-09T22:58:09.878Z,32.17
2019-03-09T23:00:37.299Z,24.63
2019-03-09T23:03:04.708Z,30.93
2019-03-09T23:05:32.164Z,35.93
2019-03-09T23:07:59.567Z,29.80
2019-03-09T23:10:26.977Z,33.77
2019-03-09T23:12:54.409Z,36.33
2019-03-09T23:15:21.800Z,33.07
2019-03-09T23:17:49.207Z,37.87
2019-03-09T23:20:16.641Z,31.07
2019-03-09T23:22:44.068Z,33.73
2019-03-09T23:25:11.524Z,31.50
2019-03-09T23:27:38.980Z,36.87
2019-03-09T23:30:06.414Z,28.63
2019-03-09T23:32:33.897Z,27.90
2019-03-09T23:35:01.305Z,28.83
2019-03-09T23:37:28.758Z,37.50
2019-03-09T23:39:56.278Z,35.97
2019-03-09T23:42:23.715Z,31.90
2019-03-09T23:44:51.143Z,41.60
2019-03-09T23:47:18.543Z,34.70
2019-03-09T23:49:45.967Z,34.10
2019-03-09T23:52:13.382Z,42.13
2019-03-09T23:54:40.803Z,36.10
2019-03-09T23:57:08.229Z,35.40
2019-03-09T23:59:35.649Z,33.70
